Time;durP1;ratioP1;P1;durP2;ratioP2;P2;SDS_P1;SDS_P2;PMS_P1;PMS_P2;Temp;Humidity;BMP_temperature;BMP_pressure;BME280_temperature;BME280_humidity;BME280_pressure;Samples;Min_cycle;Max_cycle;Signal;HPM_P1;HPM_P2
2022/01/08 00:00:08;;;;;;;4.72;1.70;;;1.70;99.90;;;;;;5067869;28;20052;-64
2022/01/08 00:02:33;;;;;;;4.20;1.80;;;1.70;99.90;;;;;;5067193;28;20489;-64
2022/01/08 00:05:00;;;;;;;6.20;2.10;;;1.80;99.90;;;;;;5067749;28;20098;-63
2022/01/08 00:07:26;;;;;;;5.75;1.90;;;1.60;99.90;;;;;;5066597;28;20513;-64
2022/01/08 00:09:52;;;;;;;4.70;2.10;;;1.60;99.90;;;;;;5069315;28;20067;-64
2022/01/08 00:12:18;;;;;;;3.78;1.85;;;1.70;99.90;;;;;;5066919;28;20060;-66
2022/01/08 00:14:44;;;;;;;5.57;1.92;;;1.40;99.90;;;;;;5050573;28;20173;-64
2022/01/08 00:17:09;;;;;;;9.43;2.10;;;1.60;99.90;;;;;;5067253;28;20044;-64
2022/01/08 00:19:35;;;;;;;5.90;1.70;;;1.60;99.90;;;;;;5068764;28;20070;-64
2022/01/08 00:22:01;;;;;;;6.57;2.47;;;1.60;99.90;;;;;;5051194;28;20141;-64
2022/01/08 00:24:27;;;;;;;4.70;2.03;;;1.60;99.90;;;;;;5068612;28;20044;-64
2022/01/08 00:26:53;;;;;;;6.22;1.98;;;1.60;99.90;;;;;;5068117;28;20505;-64
2022/01/08 00:29:18;;;;;;;8.50;2.53;;;1.60;99.90;;;;;;5070421;28;20063;-65
2022/01/08 00:31:44;;;;;;;4.85;1.70;;;1.60;99.90;;;;;;5068436;28;20105;-64
2022/01/08 00:34:10;;;;;;;5.78;2.25;;;1.60;99.90;;;;;;5069917;28;20433;-64
2022/01/08 00:36:36;;;;;;;4.90;2.00;;;1.70;99.90;;;;;;5066081;28;20075;-64
2022/01/08 00:39:02;;;;;;;6.18;1.75;;;1.60;99.90;;;;;;5052922;28;20037;-64
2022/01/08 00:41:28;;;;;;;4.72;1.83;;;1.70;99.90;;;;;;5078139;28;20087;-64
2022/01/08 00:43:54;;;;;;;5.25;2.10;;;1.70;99.90;;;;;;5049959;28;20411;-64
2022/01/08 00:46:20;;;;;;;5.45;2.00;;;2.00;99.90;;;;;;5049752;28;20501;-64
2022/01/08 00:48:45;;;;;;;3.58;1.83;;;1.70;99.90;;;;;;5049695;28;20044;-65
2022/01/08 00:51:11;;;;;;;3.92;1.90;;;1.70;99.90;;;;;;5070224;28;20040;-63
2022/01/08 00:53:38;;;;;;;6.68;2.03;;;1.80;99.90;;;;;;5068277;28;20130;-64
2022/01/08 00:56:05;;;;;;;4.20;1.80;;;1.80;99.90;;;;;;5069841;28;20052;-64
2022/01/08 00:58:31;;;;;;;5.65;2.00;;;1.80;99.90;;;;;;5068058;28;20109;-64
2022/01/08 01:00:56;;;;;;;7.07;2.08;;;1.70;99.90;;;;;;5070259;28;20044;-64
2022/01/08 01:03:22;;;;;;;5.50;2.83;;;1.70;99.90;;;;;;5070174;28;20142;-64
2022/01/08 01:05:48;;;;;;;6.00;2.33;;;1.60;99.90;;;;;;5068125;28;20044;-64
2022/01/08 01:08:14;;;;;;;4.70;2.80;;;1.60;99.90;;;;;;5069470;28;20131;-64
2022/01/08 01:10:40;;;;;;;5.70;2.20;;;1.60;99.90;;;;;;5068740;28;20124;-64
2022/01/08 01:13:06;;;;;;;5.65;2.30;;;1.60;99.90;;;;;;5086700;28;20432;-64
2022/01/08 01:15:32;;;;;;;5.95;2.70;;;1.50;99.90;;;;;;5038986;28;20057;-64
2022/01/08 01:17:58;;;;;;;5.63;2.70;;;1.50;99.90;;;;;;5049522;28;20501;-64
2022/01/08 01:20:23;;;;;;;8.35;2.53;;;1.50;99.90;;;;;;5049638;28;20052;-64
2022/01/08 01:25:24;;;;;;;6.47;2.33;;;1.60;99.90;;;;;;5069512;28;20049;-64
2022/01/08 01:28:03;;;;;;;7.43;2.88;;;1.60;99.90;;;;;;5070897;28;20605;-64
2022/01/08 01:41:09;;;;;;;4.50;2.30;;;1.60;99.90;;;;;;5072927;28;20052;-65
2022/01/08 01:41:43;;;;;;;6.10;2.70;;;1.60;99.90;;;;;;5085010;28;19974;-66
2022/01/08 01:49:35;;;;;;;5.22;2.80;;;1.50;99.90;;;;;;5084288;28;20119;-64
2022/01/08 01:52:02;;;;;;;10.52;3.13;;;1.50;99.90;;;;;;5066227;28;20052;-64
2022/01/08 01:54:29;;;;;;;6.95;3.00;;;1.50;99.90;;;;;;5080788;28;20044;-64
2022/01/08 01:56:57;;;;;;;7.13;2.78;;;1.50;99.90;;;;;;5092059;28;20087;-64
2022/01/08 01:59:27;;;;;;;7.53;3.22;;;1.50;99.90;;;;;;5087935;28;20044;-64
2022/01/08 02:01:53;;;;;;;5.65;2.80;;;1.50;99.90;;;;;;5069823;28;20218;-65
2022/01/08 02:04:19;;;;;;;8.68;2.70;;;1.50;99.90;;;;;;5060288;28;20052;-64
2022/01/08 02:06:45;;;;;;;7.35;3.30;;;1.50;99.90;;;;;;5057832;28;20114;-64
2022/01/08 02:09:11;;;;;;;6.30;2.90;;;1.50;99.90;;;;;;5072412;28;20056;-64
2022/01/08 02:12:00;;;;;;;7.78;2.63;;;1.50;99.90;;;;;;5070089;28;20060;-64
2022/01/08 02:14:28;;;;;;;5.40;2.60;;;1.50;99.90;;;;;;5072278;28;20808;-64
2022/01/08 02:16:54;;;;;;;8.50;2.80;;;1.50;99.90;;;;;;5068970;28;20388;-63
2022/01/08 02:19:20;;;;;;;7.22;2.88;;;1.60;99.90;;;;;;5051069;28;20045;-64
2022/01/08 02:21:51;;;;;;;5.00;2.65;;;1.50;99.90;;;;;;5064775;28;20056;-64
2022/01/08 02:24:17;;;;;;;9.38;2.83;;;1.50;99.90;;;;;;5072092;28;20079;-64
2022/01/08 02:26:43;;;;;;;5.05;2.28;;;1.60;99.90;;;;;;5072549;28;20048;-64
2022/01/08 02:29:18;;;;;;;5.15;2.95;;;1.60;99.90;;;;;;5072025;28;20044;-64
2022/01/08 02:31:53;;;;;;;4.75;2.53;;;1.70;99.90;;;;;;5092307;28;20044;-64
2022/01/08 02:34:18;;;;;;;7.72;2.35;;;1.60;99.90;;;;;;5071917;28;20109;-64
2022/01/08 02:36:44;;;;;;;5.18;2.50;;;1.60;99.90;;;;;;5071827;28;20060;-65
2022/01/08 02:39:12;;;;;;;5.85;2.55;;;1.50;99.90;;;;;;5052755;28;20055;-64
2022/01/08 02:41:39;;;;;;;5.72;2.80;;;1.50;99.90;;;;;;5055413;28;20553;-64
2022/01/08 02:44:07;;;;;;;5.75;2.38;;;1.50;99.90;;;;;;5071095;28;20506;-64
2022/01/08 02:46:33;;;;;;;4.88;2.45;;;1.50;99.90;;;;;;5078812;28;20123;-64
2022/01/08 02:48:59;;;;;;;5.72;2.05;;;1.50;99.90;;;;;;5062060;28;20151;-64
2022/01/08 02:51:24;;;;;;;3.55;1.65;;;1.50;99.90;;;;;;5051584;28;20111;-64
2022/01/08 02:53:51;;;;;;;5.00;2.30;;;1.50;99.90;;;;;;5068903;28;20044;-64
2022/01/08 02:56:17;;;;;;;8.18;2.30;;;1.60;99.90;;;;;;5074177;28;20489;-63
2022/01/08 02:58:43;;;;;;;4.72;1.70;;;1.50;99.90;;;;;;5089845;28;20044;-66
2022/01/08 03:01:09;;;;;;;4.13;1.88;;;1.50;99.90;;;;;;5070136;28;20116;-64
2022/01/08 03:03:35;;;;;;;4.05;2.33;;;1.60;99.90;;;;;;5070312;28;20206;-64
2022/01/08 03:06:00;;;;;;;8.27;2.17;;;1.60;99.90;;;;;;5069407;28;20051;-65
2022/01/08 03:08:26;;;;;;;4.55;1.90;;;1.50;99.90;;;;;;5076765;28;20404;-63
2022/01/08 03:10:53;;;;;;;6.60;2.17;;;1.50;99.90;;;;;;5070565;28;20060;-64
2022/01/08 03:13:19;;;;;;;5.15;1.95;;;1.50;99.90;;;;;;5070015;28;20488;-64
2022/01/08 03:15:45;;;;;;;7.25;1.98;;;1.50;99.90;;;;;;5070800;28;20048;-66
2022/01/08 03:18:11;;;;;;;8.38;2.35;;;1.40;99.90;;;;;;5073494;28;20037;-64
2022/01/08 03:20:48;;;;;;;6.28;2.10;;;1.70;99.90;;;;;;5070834;28;20135;-64
2022/01/08 03:23:16;;;;;;;3.70;1.60;;;1.40;99.90;;;;;;5071160;28;20135;-64
2022/01/08 03:25:43;;;;;;;5.70;2.40;;;1.40;99.90;;;;;;5068561;28;20048;-64
2022/01/08 03:28:10;;;;;;;6.32;2.00;;;1.30;99.90;;;;;;5081118;28;20040;-64
2022/01/08 03:30:36;;;;;;;5.20;1.80;;;1.30;99.90;;;;;;5081168;28;20053;-63
2022/01/08 03:33:02;;;;;;;4.97;1.98;;;1.30;99.90;;;;;;5070298;28;20048;-64
2022/01/08 03:35:28;;;;;;;7.78;2.30;;;1.20;99.90;;;;;;5070948;28;20079;-65
2022/01/08 03:37:53;;;;;;;4.10;1.75;;;1.20;99.90;;;;;;5074324;28;20094;-64
2022/01/08 03:40:19;;;;;;;3.92;1.67;;;1.20;99.90;;;;;;5079662;28;20044;-64
2022/01/08 03:42:45;;;;;;;3.58;2.10;;;1.20;99.90;;;;;;5068644;28;20383;-64
2022/01/08 03:45:11;;;;;;;8.00;1.95;;;1.20;99.90;;;;;;5070406;28;20052;-64
2022/01/08 03:50:22;;;;;;;4.50;2.20;;;1.10;99.90;;;;;;5089609;28;20484;-64
2022/01/08 03:52:50;;;;;;;4.50;1.80;;;1.10;99.90;;;;;;5090982;28;20051;-64
2022/01/08 03:55:16;;;;;;;5.20;1.75;;;1.10;99.90;;;;;;5084344;28;20497;-62
2022/01/08 03:57:41;;;;;;;4.63;2.20;;;1.10;99.90;;;;;;5069999;28;20037;-62
2022/01/08 04:00:08;;;;;;;4.80;1.80;;;1.10;99.90;;;;;;5084639;28;20051;-62
2022/01/08 04:02:33;;;;;;;5.28;1.85;;;1.10;99.90;;;;;;5078149;28;20081;-64
2022/01/08 04:04:59;;;;;;;2.85;1.50;;;1.10;99.90;;;;;;5049937;28;20044;-64
2022/01/08 04:07:25;;;;;;;4.40;1.60;;;1.10;99.90;;;;;;5068878;28;20036;-63
2022/01/08 04:09:51;;;;;;;4.43;1.60;;;1.10;99.90;;;;;;5078486;28;20109;-64
2022/01/08 04:12:28;;;;;;;2.78;1.83;;;1.10;99.90;;;;;;5090539;28;20064;-63
2022/01/08 04:15:04;;;;;;;4.45;1.73;;;1.10;99.90;;;;;;5090097;28;20633;-64
2022/01/08 04:17:30;;;;;;;5.30;1.70;;;1.10;99.90;;;;;;5086603;28;20048;-62
2022/01/08 04:19:56;;;;;;;4.15;1.52;;;1.10;99.90;;;;;;5050564;28;20040;-63
2022/01/08 04:22:23;;;;;;;6.60;1.83;;;1.10;99.90;;;;;;5070363;28;20147;-62
2022/01/08 04:24:49;;;;;;;9.27;1.90;;;1.10;99.90;;;;;;5070275;28;20090;-62
2022/01/08 04:27:15;;;;;;;5.80;2.38;;;1.00;99.90;;;;;;5069651;28;20053;-63
2022/01/08 04:29:41;;;;;;;2.45;1.50;;;1.10;99.90;;;;;;5068935;28;20117;-62
2022/01/08 04:32:07;;;;;;;6.53;2.10;;;1.10;99.90;;;;;;5087920;28;20539;-63
2022/01/08 04:34:33;;;;;;;8.43;2.33;;;1.10;99.90;;;;;;5068737;28;20498;-63
2022/01/08 04:36:59;;;;;;;2.35;1.40;;;1.20;99.90;;;;;;5069809;28;20048;-63
2022/01/08 04:39:26;;;;;;;3.75;1.17;;;1.10;99.90;;;;;;5069423;28;20057;-64
2022/01/08 04:41:52;;;;;;;6.95;1.83;;;1.20;99.90;;;;;;5071444;28;20052;-63
2022/01/08 04:44:18;;;;;;;6.82;1.90;;;1.20;99.90;;;;;;5068308;28;20505;-64
2022/01/08 04:46:44;;;;;;;6.00;1.77;;;1.30;99.90;;;;;;5050551;28;20063;-64
2022/01/08 04:49:10;;;;;;;5.25;1.67;;;1.30;99.90;;;;;;5053808;28;20052;-64
2022/01/08 04:51:36;;;;;;;8.50;1.90;;;1.40;99.90;;;;;;5086721;28;20413;-64
2022/01/08 04:54:01;;;;;;;4.03;1.77;;;1.50;99.90;;;;;;5069587;28;20052;-63
2022/01/08 04:56:27;;;;;;;6.50;1.75;;;1.70;99.90;;;;;;5068779;28;20481;-63
2022/01/08 04:58:53;;;;;;;4.70;1.75;;;1.50;99.90;;;;;;5052618;28;20049;-62
2022/01/08 05:01:19;;;;;;;4.80;1.70;;;1.50;99.90;;;;;;5054914;28;20094;-62
2022/01/08 05:03:44;;;;;;;4.47;1.80;;;1.60;99.90;;;;;;5073894;28;20055;-64
2022/01/08 05:06:10;;;;;;;7.85;2.00;;;1.50;99.90;;;;;;5073070;28;20076;-64
2022/01/08 05:08:36;;;;;;;4.13;1.60;;;1.50;99.90;;;;;;5073254;28;20049;-64
2022/01/08 05:11:02;;;;;;;5.82;1.90;;;1.50;99.90;;;;;;5061795;28;20056;-63
2022/01/08 05:13:28;;;;;;;4.47;1.95;;;1.50;99.90;;;;;;5069668;28;20048;-63
2022/01/08 05:15:55;;;;;;;6.78;2.38;;;1.60;99.90;;;;;;5060847;28;20063;-64
2022/01/08 05:18:22;;;;;;;3.60;1.90;;;1.50;99.90;;;;;;5067943;28;20084;-65
2022/01/08 05:20:56;;;;;;;4.18;1.70;;;1.40;99.90;;;;;;5073460;28;20501;-64
2022/01/08 05:23:22;;;;;;;4.00;1.90;;;1.40;99.90;;;;;;5049481;28;20048;-64
2022/01/08 05:25:47;;;;;;;6.30;1.88;;;1.40;99.90;;;;;;5093456;28;20431;-64
2022/01/08 05:28:13;;;;;;;6.20;1.90;;;1.40;99.90;;;;;;5080035;28;20076;-64
2022/01/08 05:30:39;;;;;;;3.05;1.65;;;1.40;99.90;;;;;;5073507;28;20412;-64
2022/01/08 05:33:05;;;;;;;4.57;1.73;;;1.40;99.90;;;;;;5071190;28;20472;-64
2022/01/08 05:35:30;;;;;;;5.03;1.80;;;1.40;99.90;;;;;;5071412;28;20080;-63
2022/01/08 05:37:56;;;;;;;7.10;1.75;;;1.40;99.90;;;;;;5072210;28;20048;-64
2022/01/08 05:40:23;;;;;;;5.10;2.67;;;1.30;99.90;;;;;;5072636;28;20045;-64
2022/01/08 05:42:49;;;;;;;5.53;1.63;;;1.30;99.90;;;;;;5072262;28;20056;-62
2022/01/08 05:45:15;;;;;;;4.88;1.90;;;1.30;99.90;;;;;;5072267;28;20083;-63
2022/01/08 05:47:41;;;;;;;3.85;1.88;;;1.30;99.90;;;;;;5071367;28;20068;-62
2022/01/08 05:50:08;;;;;;;5.38;2.13;;;1.30;99.90;;;;;;5071177;28;20044;-63
2022/01/08 05:52:34;;;;;;;3.63;2.00;;;1.30;99.90;;;;;;5072638;28;20558;-63
2022/01/08 05:54:59;;;;;;;3.53;1.90;;;1.30;99.90;;;;;;5071148;28;20445;-63
2022/01/08 05:57:25;;;;;;;4.82;1.80;;;1.30;99.90;;;;;;5072239;28;20139;-62
2022/01/08 05:59:51;;;;;;;6.28;2.10;;;1.30;99.90;;;;;;5070689;28;20599;-62
2022/01/08 06:02:17;;;;;;;5.45;1.80;;;1.30;99.90;;;;;;5070762;28;20044;-63
2022/01/08 06:04:42;;;;;;;6.85;1.98;;;1.30;99.90;;;;;;5071873;28;20028;-63
2022/01/08 06:07:08;;;;;;;6.03;2.00;;;1.40;99.90;;;;;;5071991;28;20499;-64
2022/01/08 06:09:34;;;;;;;2.88;1.52;;;1.20;99.90;;;;;;5072094;28;20079;-62
2022/01/08 06:12:00;;;;;;;4.18;1.67;;;1.20;99.90;;;;;;5071228;28;20487;-62
2022/01/08 06:14:26;;;;;;;5.53;1.75;;;1.20;99.90;;;;;;5071873;28;20051;-63
2022/01/08 06:16:51;;;;;;;3.10;1.60;;;1.20;99.90;;;;;;5073223;28;20525;-63
2022/01/08 06:19:18;;;;;;;11.10;1.80;;;1.10;99.90;;;;;;5070216;28;20083;-63
2022/01/08 06:21:44;;;;;;;8.10;1.75;;;1.10;99.90;;;;;;5071164;28;20048;-63
2022/01/08 06:24:10;;;;;;;8.48;2.25;;;1.50;99.90;;;;;;5070867;28;20048;-63
2022/01/08 06:26:36;;;;;;;5.93;2.22;;;1.10;99.90;;;;;;5072261;28;20048;-63
2022/01/08 06:29:02;;;;;;;5.13;2.63;;;1.10;99.90;;;;;;5070545;28;20429;-63
2022/01/08 06:31:28;;;;;;;8.77;2.35;;;1.10;99.90;;;;;;5071075;28;20136;-63
2022/01/08 06:33:54;;;;;;;7.25;2.72;;;1.10;99.90;;;;;;5071753;28;20400;-63
2022/01/08 06:36:22;;;;;;;8.88;2.95;;;1.10;99.90;;;;;;5078838;28;20051;-63
2022/01/08 06:38:49;;;;;;;7.22;2.80;;;1.10;99.90;;;;;;5085023;28;20159;-63
2022/01/08 06:41:16;;;;;;;7.53;2.88;;;1.10;99.90;;;;;;5051970;28;20048;-63
2022/01/08 06:43:41;;;;;;;8.00;2.63;;;1.10;99.90;;;;;;5071353;28;20139;-63
2022/01/08 06:46:07;;;;;;;10.25;2.95;;;1.00;99.90;;;;;;5073189;28;20123;-63
2022/01/08 06:48:33;;;;;;;10.95;3.30;;;1.00;99.90;;;;;;5071301;28;20084;-64
2022/01/08 06:50:59;;;;;;;10.77;3.90;;;1.00;99.90;;;;;;5071446;28;20052;-64
2022/01/08 06:53:25;;;;;;;12.60;3.78;;;1.00;99.90;;;;;;5070256;28;20088;-63
2022/01/08 06:55:51;;;;;;;7.75;4.55;;;1.10;99.90;;;;;;5071512;28;20087;-63
2022/01/08 06:58:19;;;;;;;10.70;3.60;;;1.00;99.90;;;;;;5085787;28;20512;-63
2022/01/08 07:00:45;;;;;;;7.68;3.35;;;1.00;99.90;;;;;;5084013;28;20094;-63
2022/01/08 07:03:11;;;;;;;7.05;3.70;;;1.00;99.90;;;;;;5071658;28;20048;-63
2022/01/08 07:05:38;;;;;;;10.13;4.07;;;1.00;99.90;;;;;;5070975;28;20137;-63
2022/01/08 07:08:04;;;;;;;14.77;4.15;;;1.00;99.90;;;;;;5082039;28;20129;-64
2022/01/08 07:10:32;;;;;;;13.88;4.68;;;1.00;99.90;;;;;;5034583;28;20064;-64
2022/01/08 07:12:58;;;;;;;15.35;4.90;;;1.00;99.90;;;;;;5071422;28;20470;-63
2022/01/08 07:15:24;;;;;;;9.93;4.65;;;0.90;99.90;;;;;;5069860;28;20132;-64
2022/01/08 07:17:50;;;;;;;10.88;4.93;;;0.90;99.90;;;;;;5078225;28;20044;-63
2022/01/08 07:20:15;;;;;;;9.00;4.45;;;0.90;99.90;;;;;;5088689;28;20090;-64
2022/01/08 07:22:41;;;;;;;10.70;3.60;;;0.90;99.90;;;;;;5069872;28;20095;-64
2022/01/08 07:25:07;;;;;;;14.30;4.55;;;0.90;99.90;;;;;;5068989;28;20052;-65
2022/01/08 07:27:34;;;;;;;12.75;4.57;;;1.00;99.90;;;;;;5061859;28;20040;-63
2022/01/08 07:30:01;;;;;;;11.48;5.15;;;1.00;99.90;;;;;;5073928;28;20076;-63
2022/01/08 07:32:27;;;;;;;11.05;3.97;;;1.00;99.90;;;;;;5069931;28;20040;-66
2022/01/08 07:34:53;;;;;;;15.82;4.80;;;1.00;99.90;;;;;;5051765;28;20557;-63
2022/01/08 07:37:19;;;;;;;11.63;4.85;;;1.00;99.90;;;;;;5065864;28;20055;-63
2022/01/08 07:39:44;;;;;;;9.18;4.70;;;1.00;99.90;;;;;;5069109;28;20056;-63
2022/01/08 07:42:10;;;;;;;10.10;4.82;;;1.00;99.90;;;;;;5065552;28;20045;-63
2022/01/08 07:44:36;;;;;;;9.07;4.35;;;1.00;99.90;;;;;;5056191;28;20041;-63
2022/01/08 07:47:02;;;;;;;9.68;4.80;;;1.20;99.90;;;;;;5068398;28;20459;-62
2022/01/08 07:49:28;;;;;;;14.30;5.20;;;1.00;99.90;;;;;;5088517;28;20119;-64
2022/01/08 07:51:53;;;;;;;10.40;4.72;;;1.00;99.90;;;;;;5067492;28;20139;-64
2022/01/08 07:54:19;;;;;;;9.07;4.47;;;1.00;99.90;;;;;;5056326;28;20132;-63
2022/01/08 07:56:45;;;;;;;11.40;4.28;;;1.00;99.90;;;;;;5067616;28;20524;-63
2022/01/08 07:59:10;;;;;;;10.95;4.65;;;1.00;99.90;;;;;;5067699;28;20055;-63
2022/01/08 08:01:36;;;;;;;15.60;4.45;;;1.30;99.90;;;;;;5048627;28;20044;-65
2022/01/08 08:04:02;;;;;;;8.75;4.32;;;1.00;99.90;;;;;;5049103;28;20051;-64
2022/01/08 08:06:28;;;;;;;10.02;4.22;;;1.10;99.90;;;;;;5059643;28;20447;-63
2022/01/08 08:08:53;;;;;;;7.60;3.85;;;1.10;99.90;;;;;;5069032;28;20053;-64
2022/01/08 08:11:19;;;;;;;9.07;3.50;;;1.10;99.90;;;;;;5070323;28;20516;-64
2022/01/08 08:13:45;;;;;;;7.75;3.97;;;1.10;99.90;;;;;;5051109;28;20098;-64
2022/01/08 08:16:10;;;;;;;9.65;3.88;;;1.10;99.90;;;;;;5069129;28;20478;-64
2022/01/08 08:18:36;;;;;;;13.38;4.75;;;1.10;99.90;;;;;;5068482;28;20055;-64
2022/01/08 08:21:02;;;;;;;9.73;4.00;;;1.20;99.90;;;;;;5071263;28;20049;-63
2022/01/08 08:23:28;;;;;;;10.32;3.65;;;1.10;99.90;;;;;;5067608;28;20044;-66
2022/01/08 08:25:53;;;;;;;14.43;5.07;;;1.20;99.90;;;;;;5070080;28;20048;-63
2022/01/08 08:28:19;;;;;;;9.18;3.75;;;1.20;99.90;;;;;;5102273;28;20049;-63
2022/01/08 08:30:45;;;;;;;11.35;3.75;;;1.30;99.90;;;;;;5073658;28;20048;-63
2022/01/08 08:33:12;;;;;;;8.70;3.50;;;1.30;99.90;;;;;;5084993;28;20098;-63
2022/01/08 08:35:38;;;;;;;9.50;4.28;;;1.40;99.90;;;;;;5069062;28;20049;-64
2022/01/08 08:38:04;;;;;;;11.63;3.90;;;1.40;99.90;;;;;;5074322;28;20033;-64
2022/01/08 08:40:30;;;;;;;7.82;4.00;;;1.40;99.90;;;;;;5073351;28;20048;-65
2022/01/08 08:42:56;;;;;;;13.02;4.13;;;1.80;99.90;;;;;;5075116;28;20047;-64
2022/01/08 08:45:22;;;;;;;8.07;3.63;;;1.60;99.90;;;;;;5072572;28;20052;-62
2022/01/08 08:47:49;;;;;;;9.85;3.22;;;1.60;99.90;;;;;;5070588;28;20045;-63
2022/01/08 08:50:15;;;;;;;7.50;3.72;;;1.70;99.90;;;;;;5067400;28;20051;-64
2022/01/08 08:52:41;;;;;;;9.10;3.53;;;1.70;99.90;;;;;;5088728;28;20058;-61
2022/01/08 08:55:08;;;;;;;10.88;3.33;;;1.80;99.90;;;;;;5076194;28;20043;-62
2022/01/08 08:57:34;;;;;;;16.38;3.80;;;1.80;99.90;;;;;;5072133;28;20083;-68
2022/01/08 09:00:00;;;;;;;12.52;3.25;;;1.80;99.90;;;;;;5075078;28;20072;-62
2022/01/08 09:02:26;;;;;;;10.52;3.95;;;1.90;99.90;;;;;;5060552;28;20107;-61
2022/01/08 09:04:51;;;;;;;11.90;3.67;;;1.90;99.90;;;;;;5083725;28;20051;-61
2022/01/08 09:07:17;;;;;;;9.85;3.55;;;1.90;99.90;;;;;;5078018;28;20056;-64
2022/01/08 09:09:44;;;;;;;9.93;3.30;;;2.00;99.90;;;;;;5091468;28;20109;-62
2022/01/08 09:12:14;;;;;;;10.98;3.58;;;2.00;99.90;;;;;;5085292;28;20045;-62
2022/01/08 09:14:41;;;;;;;8.60;3.35;;;2.00;99.90;;;;;;5063980;28;20071;-62
2022/01/08 09:17:07;;;;;;;11.20;4.18;;;2.00;99.90;;;;;;5073117;28;20048;-62
2022/01/08 09:19:33;;;;;;;10.02;3.42;;;2.00;99.90;;;;;;5073609;28;20056;-62
2022/01/08 09:22:01;;;;;;;9.88;4.18;;;2.00;99.90;;;;;;5072541;28;20134;-62
2022/01/08 09:24:28;;;;;;;10.55;3.60;;;2.00;99.90;;;;;;5073377;28;20120;-63
2022/01/08 09:26:53;;;;;;;13.20;3.55;;;2.10;99.90;;;;;;5070109;28;20048;-62
2022/01/08 09:29:19;;;;;;;6.95;2.95;;;2.10;99.90;;;;;;5077058;28;20051;-62
2022/01/08 09:31:45;;;;;;;10.25;3.72;;;2.20;99.90;;;;;;5091101;28;20083;-63
2022/01/08 09:34:12;;;;;;;10.45;3.53;;;2.20;99.90;;;;;;5074834;28;20055;-63
2022/01/08 09:36:38;;;;;;;11.07;3.97;;;2.30;99.90;;;;;;5083060;28;20052;-64
2022/01/08 09:39:06;;;;;;;12.57;3.60;;;2.40;99.90;;;;;;5069733;28;20128;-63
2022/01/08 09:41:32;;;;;;;7.00;3.60;;;2.40;99.90;;;;;;5073858;28;20051;-63
2022/01/08 09:43:58;;;;;;;13.85;3.33;;;2.40;99.90;;;;;;5072263;28;20409;-63
2022/01/08 09:46:24;;;;;;;10.38;3.97;;;2.50;99.90;;;;;;5062975;28;20048;-63
2022/01/08 09:48:50;;;;;;;8.90;3.70;;;2.50;99.90;;;;;;5086331;28;20047;-62
2022/01/08 09:51:17;;;;;;;12.77;4.60;;;2.50;99.90;;;;;;5083902;28;20075;-63
2022/01/08 09:53:43;;;;;;;11.48;3.92;;;2.50;99.90;;;;;;5082929;28;20048;-65
2022/01/08 09:56:09;;;;;;;7.35;3.28;;;2.60;99.90;;;;;;5061108;28;20460;-63
2022/01/08 09:58:35;;;;;;;7.13;3.05;;;2.50;99.90;;;;;;5065607;28;20041;-62
2022/01/08 10:01:01;;;;;;;11.82;4.38;;;2.70;99.90;;;;;;5070865;28;20045;-62
2022/01/08 10:03:33;;;;;;;10.43;3.72;;;2.60;99.90;;;;;;5072392;28;20048;-63
2022/01/08 10:05:59;;;;;;;8.85;3.55;;;2.60;99.90;;;;;;5069887;28;20044;-62
2022/01/08 10:08:30;;;;;;;12.13;3.00;;;2.70;99.90;;;;;;5059159;28;22534;-62
2022/01/08 10:10:59;;;;;;;10.68;3.42;;;2.80;99.90;;;;;;5104678;28;20049;-62
2022/01/08 10:13:31;;;;;;;11.57;3.20;;;2.80;99.90;;;;;;5073280;28;20044;-62
2022/01/08 10:18:44;;;;;;;10.35;3.25;;;2.90;99.90;;;;;;5071857;28;20048;-64
2022/01/08 10:21:32;;;;;;;12.43;3.28;;;3.00;99.90;;;;;;5071574;28;20056;-63
2022/01/08 10:24:04;;;;;;;10.98;3.38;;;3.00;99.90;;;;;;5071834;28;20052;-64
2022/01/08 10:26:39;;;;;;;8.93;3.22;;;3.00;99.90;;;;;;5074717;28;20397;-63
2022/01/08 10:29:13;;;;;;;6.70;2.47;;;3.10;99.90;;;;;;5070791;28;20080;-62
2022/01/08 10:31:41;;;;;;;6.00;2.40;;;3.10;99.90;;;;;;5071559;28;20542;-62
2022/01/08 10:34:16;;;;;;;7.60;2.67;;;3.20;99.90;;;;;;5088646;28;20443;-62
2022/01/08 10:36:43;;;;;;;;;;;3.20;99.90;;;;;;5062327;28;20122;-62
2022/01/08 10:39:12;;;;;;;12.75;3.13;;;3.20;99.90;;;;;;5065672;28;19928;-62
2022/01/08 10:41:40;;;;;;;12.10;2.95;;;3.20;99.90;;;;;;5071533;28;20048;-62
2022/01/08 10:44:13;;;;;;;10.25;2.92;;;3.30;99.90;;;;;;5071833;28;20049;-62
2022/01/08 10:46:54;;;;;;;6.78;2.80;;;3.20;99.90;;;;;;5071546;28;20037;-63
2022/01/08 10:49:31;;;;;;;7.97;3.70;;;3.20;99.90;;;;;;5054750;28;20771;-62
2022/01/08 10:51:58;;;;;;;5.18;2.42;;;3.20;99.90;;;;;;5090459;28;20047;-61
2022/01/08 10:54:29;;;;;;;7.90;3.45;;;3.20;99.90;;;;;;5070843;28;20075;-61
2022/01/08 10:56:59;;;;;;;10.52;3.22;;;3.30;99.90;;;;;;5069452;28;20055;-62
2022/01/08 10:59:26;;;;;;;7.82;3.28;;;3.30;99.90;;;;;;5070787;28;20040;-62
2022/01/08 11:02:08;;;;;;;7.00;3.00;;;3.20;99.90;;;;;;5053117;28;20044;-65
2022/01/08 11:04:48;;;;;;;9.43;3.17;;;3.30;99.90;;;;;;5071157;28;20064;-63
2022/01/08 11:07:15;;;;;;;8.18;3.63;;;3.20;99.90;;;;;;5068634;28;20036;-63
2022/01/08 11:09:42;;;;;;;9.43;3.63;;;3.50;99.90;;;;;;5071008;28;20393;-66
2022/01/08 11:12:12;;;;;;;9.38;3.38;;;3.20;99.90;;;;;;5069235;28;20045;-63
2022/01/08 11:17:37;;;;;;;11.30;4.35;;;3.10;99.90;;;;;;5055650;28;20419;-64
2022/01/08 11:20:09;;;;;;;9.68;4.25;;;3.10;99.90;;;;;;5070879;28;20489;-63
2022/01/08 11:22:39;;;;;;;7.97;4.35;;;3.20;99.90;;;;;;5064179;28;20060;-64
2022/01/08 11:25:09;;;;;;;9.30;4.05;;;3.20;99.90;;;;;;5065147;28;20067;-63
2022/01/08 11:28:11;;;;;;;10.65;4.65;;;3.20;99.90;;;;;;5056817;28;20049;-65
2022/01/08 11:30:41;;;;;;;8.00;4.18;;;3.20;99.90;;;;;;5049241;28;20053;-64
2022/01/08 11:33:23;;;;;;;8.93;4.07;;;3.20;99.90;;;;;;5058475;28;20129;-64
2022/01/08 11:35:50;;;;;;;9.75;3.90;;;3.30;99.90;;;;;;5067240;28;20052;-64
2022/01/08 11:38:19;;;;;;;12.88;4.25;;;3.30;99.90;;;;;;5078513;28;20186;-62
2022/01/08 11:40:47;;;;;;;9.25;3.88;;;3.40;99.90;;;;;;5072113;28;20524;-63
2022/01/08 11:43:19;;;;;;;12.05;4.10;;;3.30;99.90;;;;;;5063550;28;20049;-63
2022/01/08 11:45:56;;;;;;;7.68;4.32;;;3.40;99.90;;;;;;5062901;28;20040;-62
2022/01/08 11:48:28;;;;;;;6.78;3.70;;;3.40;99.90;;;;;;5081796;28;20493;-63
2022/01/08 11:50:59;;;;;;;8.70;3.85;;;3.40;99.90;;;;;;5069476;28;20048;-61
2022/01/08 11:53:31;;;;;;;8.63;4.25;;;3.40;99.90;;;;;;5069615;28;20405;-61
2022/01/08 11:55:59;;;;;;;14.25;5.63;;;3.60;99.90;;;;;;5067890;28;20051;-63
2022/01/08 11:58:33;;;;;;;7.95;4.22;;;3.60;99.90;;;;;;5070493;28;20043;-62
2022/01/08 12:00:59;;;;;;;9.82;4.50;;;3.50;99.90;;;;;;5069918;28;20044;-65
2022/01/08 12:03:38;;;;;;;10.85;4.57;;;3.70;99.90;;;;;;5068131;28;20162;-62
2022/01/08 12:06:22;;;;;;;8.77;4.70;;;3.60;99.90;;;;;;5068153;28;20049;-62
2022/01/08 12:09:00;;;;;;;8.98;5.68;;;3.60;99.90;;;;;;5068392;28;20049;-63
2022/01/08 12:11:31;;;;;;;10.52;4.95;;;3.50;99.90;;;;;;5068047;28;20052;-62
2022/01/08 12:14:14;;;;;;;12.45;5.55;;;3.60;99.90;;;;;;5067264;28;20178;-63
2022/01/08 12:16:45;;;;;;;10.63;4.75;;;3.60;99.90;;;;;;5068637;28;20123;-63
2022/01/08 12:19:37;;;;;;;9.95;5.03;;;3.60;99.90;;;;;;5074738;28;20062;-63
2022/01/08 12:22:21;;;;;;;10.57;5.18;;;3.60;99.90;;;;;;5068290;28;20135;-66
2022/01/08 12:24:52;;;;;;;16.33;4.95;;;3.60;99.90;;;;;;5060360;28;20048;-63
2022/01/08 12:27:44;;;;;;;9.32;5.00;;;3.70;99.90;;;;;;5069020;28;20053;-62
2022/01/08 12:30:18;;;;;;;13.73;5.97;;;3.70;99.90;;;;;;5070459;28;20041;-62
2022/01/08 12:32:48;;;;;;;11.20;4.78;;;3.70;99.90;;;;;;5067988;28;20048;-63
2022/01/08 12:35:25;;;;;;;14.55;5.65;;;3.70;99.90;;;;;;5067843;28;20113;-63
2022/01/08 12:37:53;;;;;;;7.35;4.13;;;3.70;99.90;;;;;;5070043;28;20052;-61
2022/01/08 12:40:38;;;;;;;14.63;5.13;;;3.70;99.90;;;;;;5070373;28;20037;-63
2022/01/08 12:43:23;;;;;;;12.70;6.22;;;3.70;99.90;;;;;;5042276;28;20543;-66
2022/01/08 12:46:09;;;;;;;11.80;6.65;;;3.80;99.90;;;;;;5049666;28;20103;-62
2022/01/08 12:48:35;;;;;;;10.90;6.07;;;4.00;99.90;;;;;;5062489;28;20037;-62
2022/01/08 12:51:06;;;;;;;12.10;5.60;;;3.80;99.90;;;;;;5064188;28;20075;-63
2022/01/08 12:53:34;;;;;;;15.85;6.53;;;3.80;99.90;;;;;;5067752;28;20044;-62
2022/01/08 12:55:59;;;;;;;12.00;5.93;;;3.80;99.90;;;;;;5066612;28;20052;-64
2022/01/08 12:58:34;;;;;;;10.05;7.30;;;3.80;99.90;;;;;;5066107;28;20609;-62
2022/01/08 13:01:15;;;;;;;11.77;7.40;;;3.80;99.90;;;;;;5067598;28;20040;-62
2022/01/08 13:03:53;;;;;;;15.80;7.97;;;3.80;99.90;;;;;;5067902;28;20109;-63
2022/01/08 13:06:20;;;;;;;11.45;6.72;;;3.80;99.90;;;;;;5067466;28;20048;-65
2022/01/08 13:08:48;;;;;;;14.23;7.70;;;3.80;99.90;;;;;;5032995;28;20070;-62
2022/01/08 13:11:17;;;;;;;11.95;7.25;;;3.80;99.90;;;;;;5069953;28;20417;-64
2022/01/08 13:13:48;;;;;;;16.58;7.65;;;3.80;99.90;;;;;;5055462;28;20191;-63
2022/01/08 13:16:22;;;;;;;18.85;9.10;;;3.80;99.90;;;;;;5049096;28;20049;-64
2022/01/08 13:18:50;;;;;;;10.63;7.82;;;3.80;99.90;;;;;;5031878;28;20064;-63
2022/01/08 13:21:17;;;;;;;14.25;8.57;;;3.80;99.90;;;;;;5055579;28;20055;-62
2022/01/08 13:23:51;;;;;;;15.02;8.90;;;3.90;99.90;;;;;;5071163;28;20056;-63